Time;durP1;ratioP1;P1;durP2;ratioP2;P2;SDS_P1;SDS_P2;PMS_P1;PMS_P2;Temp;Humidity;BMP_temperature;BMP_pressure;BME280_temperature;BME280_humidity;BME280_pressure;Samples;Min_cycle;Max_cycle;Signal;HPM_P1;HPM_P2
2024/04/03 00:01:58;;;;;;;6.00;1.23;;;;;;;15.30;47.29;99857.50;5045027;28;20029;-79
2024/04/03 00:04:23;;;;;;;4.88;1.25;;;;;;;15.36;47.13;99856.47;5051172;28;20454;-78
2024/04/03 00:06:49;;;;;;;3.65;1.15;;;;;;;15.08;47.78;99847.63;5051067;28;20033;-78
2024/04/03 00:09:14;;;;;;;3.80;1.02;;;;;;;15.32;47.95;99874.16;5051301;28;20025;-80
2024/04/03 00:11:39;;;;;;;4.60;1.10;;;;;;;15.14;48.38;99870.78;5049918;28;20095;-79
2024/04/03 00:14:05;;;;;;;1.77;0.93;;;;;;;15.23;47.81;99855.81;5044269;28;20021;-79
2024/04/03 00:16:30;;;;;;;4.55;1.58;;;;;;;15.14;48.47;99865.41;5051090;28;20043;-78
2024/04/03 00:18:56;;;;;;;6.30;1.00;;;;;;;14.96;48.80;99846.97;5051032;28;20025;-79
2024/04/03 00:21:21;;;;;;;1.88;0.70;;;;;;;15.20;48.10;99887.75;5042785;28;20024;-79
2024/04/03 00:23:46;;;;;;;3.67;0.98;;;;;;;14.68;48.58;99824.66;5050607;28;20057;-79
2024/04/03 00:26:12;;;;;;;3.60;0.80;;;;;;;14.87;48.56;99860.00;5050613;28;20036;-80
2024/04/03 00:28:37;;;;;;;1.52;0.80;;;;;;;15.01;48.49;99898.03;5050785;28;20463;-79
2024/04/03 00:31:03;;;;;;;2.83;0.90;;;;;;;14.70;49.07;99867.34;5045535;28;20057;-79
2024/04/03 00:33:28;;;;;;;3.38;0.90;;;;;;;14.77;48.75;99868.78;5050761;28;20402;-79
2024/04/03 00:35:58;;;;;;;2.78;0.73;;;;;;;14.88;48.71;99893.06;5050830;28;20490;-79
2024/04/03 00:38:24;;;;;;;2.45;0.80;;;;;;;14.86;49.12;99906.75;5058025;28;20414;-79
2024/04/03 00:41:07;;;;;;;3.35;0.80;;;;;;;14.71;49.38;99877.84;5063643;28;20030;-79
2024/04/03 00:43:33;;;;;;;2.72;0.90;;;;;;;14.80;48.69;99865.59;5050243;28;20032;-79
2024/04/03 00:46:00;;;;;;;2.72;0.93;;;;;;;14.70;49.61;99905.75;5052340;28;20119;-78
2024/04/03 00:48:27;;;;;;;2.05;0.70;;;;;;;14.65;49.74;99870.81;5050371;28;20029;-78
2024/04/03 00:50:55;;;;;;;1.65;0.85;;;;;;;14.61;49.63;99877.72;5049504;28;20399;-79
2024/04/03 00:53:22;;;;;;;3.50;1.45;;;;;;;14.49;50.16;99893.09;5051820;28;20029;-79
2024/04/03 00:55:47;;;;;;;2.20;0.85;;;;;;;14.73;49.60;99905.25;5055546;28;20486;-78
2024/04/03 00:58:13;;;;;;;2.50;0.73;;;;;;;14.65;49.22;99908.38;5058549;28;20027;-78
2024/04/03 01:00:38;;;;;;;3.38;0.77;;;;;;;14.46;50.01;99919.38;5070918;28;20020;-79
2024/04/03 01:03:05;;;;;;;2.35;0.80;;;;;;;14.56;49.84;99913.34;5058865;28;20045;-78
2024/04/03 01:05:31;;;;;;;1.30;0.60;;;;;;;14.38;50.24;99895.63;5049528;28;20567;-78
2024/04/03 01:07:56;;;;;;;3.78;0.80;;;;;;;14.34;49.94;99899.06;5050506;28;20136;-79
2024/04/03 01:10:22;;;;;;;1.80;0.70;;;;;;;14.21;50.64;99921.69;5053178;28;20037;-78
2024/04/03 01:12:48;;;;;;;1.27;0.57;;;;;;;14.03;50.98;99894.06;5049266;28;20029;-78
2024/04/03 01:15:13;;;;;;;1.83;0.70;;;;;;;14.18;50.83;99922.16;5039125;28;20087;-78
2024/04/03 01:17:39;;;;;;;2.85;0.90;;;;;;;13.95;50.95;99894.50;5049714;28;20087;-79
2024/04/03 01:20:06;;;;;;;3.20;0.90;;;;;;;13.87;50.69;99916.34;5049589;28;20029;-79
2024/04/03 01:22:32;;;;;;;2.47;0.85;;;;;;;14.14;50.25;99929.09;5038201;28;20418;-78
2024/04/03 01:24:58;;;;;;;3.08;0.70;;;;;;;13.78;49.98;99880.31;5048543;28;20063;-78
2024/04/03 01:27:24;;;;;;;1.85;0.50;;;;;;;13.87;49.98;99921.72;5049530;28;20567;-78
2024/04/03 01:29:49;;;;;;;3.70;0.90;;;;;;;14.00;50.15;99926.75;5049464;28;20072;-78
2024/04/03 01:32:15;;;;;;;3.10;0.80;;;;;;;13.85;49.95;99902.38;5040984;28;20029;-79
2024/04/03 01:34:40;;;;;;;1.92;0.75;;;;;;;13.91;49.47;99922.03;5049967;28;20132;-79
2024/04/03 01:37:06;;;;;;;2.25;0.85;;;;;;;14.07;49.42;99940.78;5059883;28;20417;-79
2024/04/03 01:39:32;;;;;;;4.00;0.60;;;;;;;13.94;49.03;99911.66;5049240;28;20025;-79
2024/04/03 01:41:57;;;;;;;1.17;0.70;;;;;;;13.85;49.52;99918.47;5048166;28;20028;-79
2024/04/03 01:44:23;;;;;;;2.28;0.55;;;;;;;14.05;48.95;99932.19;5047506;28;20429;-79
2024/04/03 01:46:48;;;;;;;1.70;0.60;;;;;;;14.24;48.16;99942.63;5044078;28;20032;-80
2024/04/03 01:49:14;;;;;;;1.20;0.65;;;;;;;14.16;48.02;99935.84;5049092;28;20120;-80
2024/04/03 01:51:39;;;;;;;1.83;0.70;;;;;;;13.77;48.55;99911.66;5049416;28;20021;-81
2024/04/03 01:54:05;;;;;;;1.48;0.70;;;;;;;13.76;48.23;99909.22;5048966;28;20113;-79
2024/04/03 01:56:30;;;;;;;1.80;0.50;;;;;;;13.91;48.70;99922.03;5049366;28;20025;-79
2024/04/03 01:58:56;;;;;;;2.20;1.45;;;;;;;13.85;49.34;99937.22;5049369;28;20103;-79
2024/04/03 02:01:21;;;;;;;1.90;0.60;;;;;;;13.73;49.13;99955.25;5048816;28;20025;-79
2024/04/03 02:03:47;;;;;;;1.40;0.60;;;;;;;13.49;49.65;99920.56;5042104;28;20115;-79
2024/04/03 02:06:12;;;;;;;1.33;0.68;;;;;;;13.75;48.85;99937.88;5046789;28;20021;-79
2024/04/03 02:08:38;;;;;;;3.05;0.70;;;;;;;13.49;49.41;99923.25;5045819;28;20043;-78
2024/04/03 02:11:03;;;;;;;2.35;0.80;;;;;;;13.64;49.74;99958.31;5048464;28;20061;-79
2024/04/03 02:13:29;;;;;;;1.88;0.85;;;;;;;13.60;49.60;99965.22;5050916;28;20029;-80
2024/04/03 02:15:55;;;;;;;3.03;0.90;;;;;;;13.48;50.31;99959.09;5047390;28;20112;-79
2024/04/03 02:18:21;;;;;;;2.08;0.80;;;;;;;13.44;50.78;99971.34;5048744;28;20483;-78
2024/04/03 02:20:47;;;;;;;2.53;0.90;;;;;;;13.11;51.39;99954.09;5048152;28;20727;-79
2024/04/03 02:23:13;;;;;;;3.28;1.10;;;;;;;13.25;51.83;99984.09;5048185;28;20032;-80
2024/04/03 02:25:38;;;;;;;3.42;1.10;;;;;;;13.16;51.71;99962.25;5041102;28;20096;-79
2024/04/03 02:28:04;;;;;;;2.05;0.90;;;;;;;13.10;52.01;99944.47;5048305;28;20037;-80
2024/04/03 02:30:29;;;;;;;3.25;1.20;;;;;;;13.43;51.79;99975.91;5044608;28;20096;-80
2024/04/03 02:32:55;;;;;;;4.18;1.50;;;;;;;13.04;53.05;99982.91;5048302;28;20021;-80
2024/04/03 02:35:20;;;;;;;3.28;1.50;;;;;;;12.98;53.20;99978.50;5044628;28;20075;-81
2024/04/03 02:37:46;;;;;;;3.15;1.45;;;;;;;12.99;52.84;99964.84;5050305;28;20111;-80
2024/04/03 02:40:11;;;;;;;4.45;1.40;;;;;;;13.21;52.28;99975.72;5055386;28;20395;-80
2024/04/03 02:42:37;;;;;;;4.05;1.33;;;;;;;12.63;54.00;99949.94;5051457;28;20413;-80
2024/04/03 02:45:02;;;;;;;4.38;1.60;;;;;;;12.64;54.10;99967.59;5044811;28;20109;-79
2024/04/03 02:47:28;;;;;;;4.68;1.75;;;;;;;13.08;53.21;99992.06;5043425;28;20128;-79
2024/04/03 02:49:53;;;;;;;2.83;1.45;;;;;;;12.75;53.78;99968.63;5042808;28;20397;-80
2024/04/03 02:52:19;;;;;;;5.32;2.30;;;;;;;12.77;53.59;99962.00;5048102;28;20032;-79
2024/04/03 02:54:44;;;;;;;2.95;1.40;;;;;;;12.64;54.13;99967.59;5049429;28;20021;-79
2024/04/03 02:57:09;;;;;;;4.03;1.20;;;;;;;12.85;53.82;100003.63;5047244;28;20033;-79
2024/04/03 02:59:35;;;;;;;2.28;0.90;;;;;;;12.94;53.07;100004.09;5044511;28;20035;-80
2024/04/03 03:02:01;;;;;;;4.65;0.98;;;;;;;12.78;52.67;99979.69;5047476;28;20087;-80
2024/04/03 03:04:26;;;;;;;1.85;0.63;;;;;;;12.89;52.91;99993.28;5047951;28;20033;-79
2024/04/03 03:06:53;;;;;;;1.40;0.85;;;;;;;13.07;52.20;100014.53;5041296;28;20028;-80
2024/04/03 03:09:22;;;;;;;2.55;0.73;;;;;;;13.09;52.31;100007.06;5068099;28;20043;-80
2024/04/03 03:11:48;;;;;;;1.58;0.80;;;;;;;13.17;52.10;100024.66;5047487;28;20111;-79
2024/04/03 03:14:13;;;;;;;1.23;0.80;;;;;;;12.88;52.55;99999.69;5047916;28;20025;-79
2024/04/03 03:16:39;;;;;;;2.95;1.10;;;;;;;13.00;52.34;100006.63;5047282;28;20029;-79
2024/04/03 03:19:04;;;;;;;1.35;0.63;;;;;;;12.87;52.25;99993.50;5046290;28;20040;-80
2024/04/03 03:21:29;;;;;;;1.58;0.68;;;;;;;13.12;51.63;100020.00;5061765;28;20111;-79
2024/04/03 03:23:55;;;;;;;3.35;0.68;;;;;;;12.97;51.91;100014.31;5066466;28;20024;-80
2024/04/03 03:26:20;;;;;;;1.90;0.82;;;;;;;12.96;52.32;100044.84;5035103;28;20539;-79
2024/04/03 03:28:46;;;;;;;1.90;0.82;;;;;;;12.70;52.98;100016.69;5047228;28;20128;-80
2024/04/03 03:31:12;;;;;;;2.03;1.00;;;;;;;12.74;54.43;100026.69;5038609;28;20053;-80
2024/04/03 03:33:38;;;;;;;3.47;1.10;;;;;;;12.80;55.24;100057.84;5050427;28;20033;-80
2024/04/03 03:36:04;;;;;;;5.88;1.10;;;;;;;12.47;56.02;100034.38;5042102;28;20021;-80
2024/04/03 03:38:29;;;;;;;3.80;1.13;;;;;;;12.34;56.28;100023.88;5048123;28;20021;-80
2024/04/03 03:40:55;;;;;;;1.88;0.85;;;;;;;12.49;56.25;100066.25;5051363;28;20072;-80
2024/04/03 03:43:21;;;;;;;3.45;1.02;;;;;;;12.26;56.60;100051.81;5051661;28;20039;-79
2024/04/03 03:45:47;;;;;;;1.73;1.17;;;;;;;12.25;56.37;100071.53;5049642;28;20078;-80
2024/04/03 03:48:13;;;;;;;2.58;1.15;;;;;;;12.12;57.01;100045.84;5051138;28;20532;-80
2024/04/03 03:53:25;;;;;;;2.53;1.10;;;;;;;12.36;56.85;100065.41;5051433;28;20040;-79
2024/04/03 03:55:51;;;;;;;1.80;0.80;;;;;;;12.15;57.05;100065.94;5050624;28;20025;-80
2024/04/03 03:58:17;;;;;;;4.10;1.13;;;;;;;11.88;57.86;100087.69;5051201;28;20033;-79
2024/04/03 04:00:43;;;;;;;4.35;0.93;;;;;;;12.14;56.65;100083.03;5045346;28;20021;-80
2024/04/03 04:03:08;;;;;;;3.50;1.38;;;;;;;11.85;57.59;100061.44;5050916;28;20035;-80
2024/04/03 04:05:35;;;;;;;2.60;0.77;;;;;;;11.55;58.18;100050.75;5050889;28;20048;-80
2024/04/03 04:08:01;;;;;;;2.63;0.93;;;;;;;11.81;59.20;100076.25;5051042;28;20129;-79
2024/04/03 04:10:26;;;;;;;3.80;0.65;;;;;;;11.51;59.34;100066.38;5051058;28;20108;-79
2024/04/03 04:12:53;;;;;;;3.15;0.75;;;;;;;11.53;60.39;100061.63;5051245;28;20029;-79
2024/04/03 04:15:19;;;;;;;3.40;0.85;;;;;;;11.54;60.64;100087.28;5049305;28;20044;-80
2024/04/03 04:17:45;;;;;;;3.00;1.00;;;;;;;11.55;60.41;100080.94;5038236;28;20021;-80
2024/04/03 04:20:10;;;;;;;3.80;1.02;;;;;;;11.58;60.27;100099.16;5050670;28;20040;-80
2024/04/03 04:22:36;;;;;;;1.75;0.80;;;;;;;11.42;59.94;100078.41;5049073;28;20464;-79
2024/04/03 04:25:02;;;;;;;2.22;1.00;;;;;;;11.61;60.47;100095.25;5050498;28;20057;-79
2024/04/03 04:27:28;;;;;;;2.60;0.80;;;;;;;11.92;60.76;100128.97;5034340;28;20048;-80
2024/04/03 04:29:54;;;;;;;2.72;1.02;;;;;;;11.71;60.09;100103.53;5046548;28;20139;-80
2024/04/03 04:32:19;;;;;;;2.75;1.00;;;;;;;11.64;59.65;100089.44;5050341;28;20029;-79
2024/04/03 04:34:45;;;;;;;2.03;0.90;;;;;;;12.14;57.53;100125.81;5046063;28;20029;-80
2024/04/03 04:37:11;;;;;;;2.78;0.90;;;;;;;12.09;56.95;100120.31;5048755;28;20035;-79
2024/04/03 04:39:36;;;;;;;2.50;1.10;;;;;;;12.20;56.77;100127.59;5043569;28;20538;-79
2024/04/03 04:42:02;;;;;;;3.97;1.20;;;;;;;12.34;55.79;100150.41;5039253;28;20083;-79
2024/04/03 04:44:27;;;;;;;3.08;0.85;;;;;;;12.43;55.42;100132.97;5049520;28;20028;-79
2024/04/03 04:46:54;;;;;;;4.10;1.17;;;;;;;12.55;55.64;100150.94;5050038;28;20037;-80
2024/04/03 04:49:21;;;;;;;6.40;1.30;;;;;;;12.61;56.79;100160.72;5046735;28;20043;-80
2024/04/03 04:51:47;;;;;;;2.60;0.80;;;;;;;12.60;56.21;100126.97;5050605;28;20543;-79
2024/04/03 04:54:17;;;;;;;2.72;0.90;;;;;;;12.58;56.29;100107.66;5050126;28;20083;-79
2024/04/03 04:56:45;;;;;;;6.20;2.05;;;;;;;12.97;56.40;100153.50;5044836;28;20025;-79
2024/04/03 04:59:14;;;;;;;2.35;0.95;;;;;;;12.93;55.54;100138.97;5045900;28;20041;-78
2024/04/03 05:01:40;;;;;;;2.65;0.80;;;;;;;13.10;54.40;100161.31;5050142;28;20029;-79
2024/04/03 05:04:07;;;;;;;3.05;1.38;;;;;;;13.07;54.60;100140.38;5049801;28;20417;-79
2024/04/03 05:06:33;;;;;;;6.03;2.00;;;;;;;13.35;54.20;100169.13;5049432;28;20067;-79
2024/04/03 05:09:00;;;;;;;1.52;0.77;;;;;;;13.41;52.93;100170.06;5044875;28;20083;-79
2024/04/03 05:11:26;;;;;;;1.75;0.75;;;;;;;13.07;53.73;100129.66;5039218;28;20026;-79
2024/04/03 05:13:52;;;;;;;1.83;0.73;;;;;;;13.46;55.04;100172.84;5049172;28;20509;-80
2024/04/03 05:16:20;;;;;;;2.17;0.95;;;;;;;13.48;52.77;100168.06;5055206;28;20066;-80
2024/04/03 05:18:46;;;;;;;2.72;1.10;;;;;;;13.63;53.29;100178.31;5053453;28;20021;-80
2024/04/03 05:21:13;;;;;;;6.40;1.08;;;;;;;13.58;52.41;100164.78;5046698;28;20033;-79
2024/04/03 05:23:38;;;;;;;2.45;0.88;;;;;;;13.35;52.56;100138.88;5049561;28;20021;-79
2024/04/03 05:26:06;;;;;;;3.33;0.85;;;;;;;13.43;52.57;100158.06;5050144;28;20044;-80
2024/04/03 05:28:35;;;;;;;3.53;1.00;;;;;;;13.58;52.80;100165.59;5038640;28;20028;-79
2024/04/03 05:31:14;;;;;;;5.25;1.15;;;;;;;13.78;51.96;100180.50;5049445;28;20445;-79
2024/04/03 05:33:40;;;;;;;4.00;1.10;;;;;;;14.01;51.55;100207.22;5049838;28;20108;-78
2024/04/03 05:36:08;;;;;;;2.58;1.02;;;;;;;13.94;53.07;100216.47;5049105;28;20041;-79
2024/04/03 05:38:34;;;;;;;2.08;0.82;;;;;;;13.86;52.98;100188.16;5048144;28;20032;-79
2024/04/03 05:41:00;;;;;;;2.25;0.90;;;;;;;14.15;52.10;100215.00;5046251;28;20517;-79
2024/04/03 05:43:26;;;;;;;2.08;0.80;;;;;;;13.96;50.85;100199.09;5047016;28;20025;-79
2024/04/03 05:45:54;;;;;;;2.50;0.80;;;;;;;14.26;51.92;100220.31;5048808;28;20024;-79
2024/04/03 05:48:23;;;;;;;2.53;0.73;;;;;;;14.32;50.59;100213.16;5045251;28;20025;-78
2024/04/03 05:51:02;;;;;;;1.92;0.70;;;;;;;14.48;51.67;100203.53;5048967;28;20021;-79
2024/04/03 05:53:27;;;;;;;6.28;2.05;;;;;;;14.43;50.59;100204.25;5045246;28;20034;-79
2024/04/03 05:55:58;;;;;;;6.43;3.10;;;;;;;14.35;50.85;100193.91;5047971;28;20395;-79
2024/04/03 05:58:24;;;;;;;10.45;8.48;;;;;;;14.56;50.94;100191.63;5050732;28;20037;-79
2024/04/03 06:00:51;;;;;;;17.17;12.93;;;;;;;14.97;50.06;100230.69;5047116;28;20452;-78
2024/04/03 06:03:17;;;;;;;19.17;15.05;;;;;;;14.81;50.26;100221.59;5048652;28;20445;-79
2024/04/03 06:05:43;;;;;;;9.75;5.32;;;;;;;15.00;49.65;100210.63;5048610;28;20051;-80
2024/04/03 06:08:09;;;;;;;9.48;3.90;;;;;;;15.02;49.31;100225.44;5042078;28;20105;-79
2024/04/03 06:10:36;;;;;;;11.98;5.03;;;;;;;15.19;49.44;100217.34;5043811;28;20036;-79
2024/04/03 06:13:03;;;;;;;6.10;1.77;;;;;;;15.18;48.44;100213.06;5036403;28;20032;-79
2024/04/03 06:15:29;;;;;;;6.03;1.93;;;;;;;15.36;49.12;100217.31;5049084;28;20505;-81
2024/04/03 06:17:55;;;;;;;6.32;1.67;;;;;;;15.47;48.76;100210.25;5047726;28;20788;-79
2024/04/03 06:20:20;;;;;;;2.75;0.80;;;;;;;15.43;48.62;100206.44;5048612;28;20037;-79
2024/04/03 06:22:48;;;;;;;2.65;0.90;;;;;;;15.45;49.43;100185.50;5049843;28;20112;-78
2024/04/03 06:25:14;;;;;;;10.25;2.25;;;;;;;15.74;50.18;100226.50;5049167;28;20032;-80
2024/04/03 06:27:39;;;;;;;3.95;1.17;;;;;;;15.85;48.67;100220.19;5062364;28;20032;-79
2024/04/03 06:30:05;;;;;;;2.70;1.10;;;;;;;15.80;48.97;100200.50;5058447;28;20102;-79
2024/04/03 06:32:31;;;;;;;4.20;0.85;;;;;;;16.22;47.99;100230.31;5058717;28;20117;-79
2024/04/03 06:34:56;;;;;;;4.53;1.27;;;;;;;16.12;47.88;100184.47;5075385;28;20064;-80
2024/04/03 06:37:22;;;;;;;2.53;1.05;;;;;;;16.63;47.52;100219.13;5078282;28;20080;-79
2024/04/03 06:39:47;;;;;;;6.25;0.90;;;;;;;16.68;45.34;100227.25;5074533;28;20025;-79
2024/04/03 06:42:13;;;;;;;2.75;1.02;;;;;;;16.78;46.79;100230.03;5050177;28;20033;-80
2024/04/03 06:44:39;;;;;;;4.45;1.30;;;;;;;16.94;46.53;100220.25;5058318;28;20033;-79
2024/04/03 06:47:05;;;;;;;2.28;0.70;;;;;;;16.99;44.32;100239.13;5054873;28;20059;-80
2024/04/03 06:49:32;;;;;;;6.97;1.70;;;;;;;17.13;43.20;100242.22;5055642;28;20032;-80
2024/04/03 06:51:58;;;;;;;3.97;1.70;;;;;;;17.10;43.80;100236.53;5057581;28;20036;-79
2024/04/03 06:54:24;;;;;;;6.07;1.17;;;;;;;17.25;42.92;100240.16;5054665;28;20103;-78
2024/04/03 06:56:49;;;;;;;4.65;1.08;;;;;;;17.40;41.75;100230.53;5054616;28;20032;-79
2024/04/03 06:59:15;;;;;;;1.88;0.60;;;;;;;17.66;42.56;100237.69;5056488;28;20025;-79
2024/04/03 07:01:40;;;;;;;4.35;1.42;;;;;;;17.80;42.53;100234.53;5052950;28;20032;-79
2024/04/03 07:04:06;;;;;;;4.05;1.25;;;;;;;17.97;42.14;100210.91;5053591;28;20058;-79
2024/04/03 07:06:33;;;;;;;6.40;2.83;;;;;;;17.79;41.63;100222.13;5051115;28;20089;-79
2024/04/03 07:08:58;;;;;;;1.25;0.60;;;;;;;17.83;40.23;100225.94;5049570;28;20486;-80
2024/04/03 07:11:24;;;;;;;2.00;0.70;;;;;;;17.76;41.60;100199.19;5043558;28;20105;-80
2024/04/03 07:13:49;;;;;;;3.42;0.65;;;;;;;17.84;39.83;100192.50;5050873;28;20234;-80
2024/04/03 07:16:14;;;;;;;1.58;0.60;;;;;;;18.13;40.42;100243.34;5049276;28;20488;-79
2024/04/03 07:18:40;;;;;;;1.85;0.50;;;;;;;18.23;39.34;100246.88;5048634;28;20033;-80
2024/04/03 07:21:05;;;;;;;2.25;0.63;;;;;;;18.12;39.10;100225.50;5046897;28;20114;-80
2024/04/03 07:23:31;;;;;;;2.55;0.70;;;;;;;18.39;39.32;100261.25;5048103;28;20513;-80
2024/04/03 07:25:57;;;;;;;1.75;0.50;;;;;;;18.57;38.10;100267.22;5048638;28;20029;-79
2024/04/03 07:28:24;;;;;;;1.55;0.60;;;;;;;18.56;40.45;100233.19;5048412;28;20549;-80
2024/04/03 07:30:50;;;;;;;3.42;1.00;;;;;;;18.62;38.95;100243.72;5044237;28;20041;-80
2024/04/03 07:33:16;;;;;;;3.05;0.98;;;;;;;18.84;37.38;100254.31;5047707;28;20083;-79
2024/04/03 07:35:41;;;;;;;2.67;0.90;;;;;;;18.79;37.17;100254.31;5047933;28;20463;-81
2024/04/03 07:38:07;;;;;;;4.30;1.52;;;;;;;18.85;37.36;100242.44;5030734;28;20099;-80
2024/04/03 07:40:34;;;;;;;2.97;0.80;;;;;;;19.09;37.48;100271.63;5047177;28;20037;-80
2024/04/03 07:43:00;;;;;;;4.93;0.80;;;;;;;19.45;37.84;100274.28;5042515;28;20071;-80
2024/04/03 07:45:25;;;;;;;1.25;0.68;;;;;;;19.41;36.05;100238.06;5043739;28;20276;-80
2024/04/03 07:47:51;;;;;;;1.73;0.50;;;;;;;19.66;36.45;100250.75;5036918;28;20399;-80
2024/04/03 07:50:17;;;;;;;2.83;0.88;;;;;;;19.93;35.90;100266.63;5033682;28;20495;-79
2024/04/03 07:52:43;;;;;;;3.25;1.35;;;;;;;19.65;35.28;100266.13;5043632;28;20136;-79
2024/04/03 07:55:10;;;;;;;5.38;0.98;;;;;;;19.46;35.33;100257.00;5045718;28;20087;-79
2024/04/03 07:57:36;;;;;;;1.95;0.88;;;;;;;19.73;34.06;100256.69;5032519;28;20021;-80
2024/04/03 08:00:08;;;;;;;4.25;1.05;;;;;;;19.53;35.27;100235.88;5038074;28;20037;-79
2024/04/03 08:02:41;;;;;;;3.63;1.27;;;;;;;19.61;34.86;100239.91;5045962;28;20032;-80
2024/04/03 08:05:10;;;;;;;2.88;0.85;;;;;;;19.94;34.17;100252.03;5033019;28;20065;-79
2024/04/03 08:07:36;;;;;;;2.17;0.70;;;;;;;19.87;33.78;100263.13;5036224;28;20395;-79
2024/04/03 08:10:06;;;;;;;1.30;0.40;;;;;;;20.06;33.63;100247.13;5046803;28;20029;-80
2024/04/03 08:12:33;;;;;;;4.25;0.60;;;;;;;20.46;34.38;100247.97;5050114;28;20542;-80
2024/04/03 08:14:59;;;;;;;1.70;0.65;;;;;;;20.81;33.40;100258.88;5044252;28;20393;-80
2024/04/03 08:17:26;;;;;;;5.15;0.93;;;;;;;20.43;31.74;100226.88;5045357;28;20110;-80
2024/04/03 08:19:52;;;;;;;1.80;0.63;;;;;;;20.87;31.85;100255.84;5039858;28;20028;-81
2024/04/03 08:22:17;;;;;;;1.05;0.40;;;;;;;20.54;31.67;100238.44;5047167;28;20451;-80
2024/04/03 08:24:43;;;;;;;2.85;0.88;;;;;;;20.19;31.96;100221.31;5043635;28;20593;-80
2024/04/03 08:27:10;;;;;;;2.25;0.52;;;;;;;20.29;31.77;100198.78;5048523;28;20039;-80
2024/04/03 08:29:39;;;;;;;4.35;0.70;;;;;;;20.59;31.18;100248.47;5042381;28;20604;-80
2024/04/03 08:32:07;;;;;;;3.13;0.68;;;;;;;20.58;32.70;100192.66;5050139;28;20061;-80
2024/04/03 08:34:33;;;;;;;3.65;0.93;;;;;;;21.08;31.45;100225.84;5039654;28;20517;-79
2024/04/03 08:36:58;;;;;;;1.88;0.60;;;;;;;21.14;30.10;100200.31;5049526;28;20108;-81
2024/04/03 08:39:24;;;;;;;2.25;0.40;;;;;;;21.04;30.78;100203.94;5039454;28;20033;-80
2024/04/03 08:41:56;;;;;;;1.00;0.43;;;;;;;21.18;31.96;100228.47;5035184;28;20118;-80
2024/04/03 08:44:22;;;;;;;2.60;0.43;;;;;;;21.61;30.35;100228.59;5039901;28;20523;-80
2024/04/03 08:46:53;;;;;;;1.70;0.45;;;;;;;21.28;30.05;100228.38;5046168;28;20025;-79
2024/04/03 08:49:19;;;;;;;3.17;0.43;;;;;;;21.27;30.24;100213.22;5043497;28;20751;-80
2024/04/03 08:52:01;;;;;;;3.65;0.40;;;;;;;21.38;30.83;100213.09;5045734;28;20113;-79
2024/04/03 08:54:28;;;;;;;2.85;0.40;;;;;;;21.35;28.98;100224.50;5045976;28;20773;-79
2024/04/03 08:56:54;;;;;;;3.00;0.50;;;;;;;21.07;28.19;100229.69;5049771;28;20502;-80
2024/04/03 08:59:20;;;;;;;3.00;0.45;;;;;;;21.35;27.66;100235.38;5048670;28;20063;-79
2024/04/03 09:01:49;;;;;;;1.02;0.47;;;;;;;21.55;28.85;100216.19;5043486;28;20021;-80
2024/04/03 09:04:17;;;;;;;2.38;0.77;;;;;;;21.53;28.29;100236.56;5038647;28;20033;-80
2024/04/03 09:06:43;;;;;;;2.38;0.82;;;;;;;21.54;28.02;100214.59;5044441;28;20120;-81
2024/04/03 09:09:20;;;;;;;2.65;0.60;;;;;;;21.82;28.06;100218.34;5032510;28;20040;-81
2024/04/03 09:11:48;;;;;;;;;;;;;;;22.20;28.33;100228.44;5037704;28;20060;-80
2024/04/03 09:14:24;;;;;;;2.08;0.80;;;;;;;22.32;27.00;100223.41;5036700;28;20286;-82
2024/04/03 09:16:50;;;;;;;2.55;0.70;;;;;;;22.83;27.93;100219.09;5043958;28;20041;-81
2024/04/03 09:19:15;;;;;;;2.75;0.68;;;;;;;22.74;25.57;100232.59;5049984;28;20025;-80
2024/04/03 09:21:41;;;;;;;3.55;0.77;;;;;;;21.89;27.69;100201.69;5049240;28;20025;-80
2024/04/03 09:24:10;;;;;;;2.47;0.60;;;;;;;22.20;26.92;100207.50;5052181;28;20025;-80
2024/04/03 09:26:45;;;;;;;2.20;0.80;;;;;;;22.96;27.79;100212.91;5050020;28;20028;-81
2024/04/03 09:29:15;;;;;;;2.15;0.60;;;;;;;22.69;26.01;100191.88;5049333;28;20023;-80
2024/04/03 09:31:42;;;;;;;2.00;0.60;;;;;;;22.41;25.82;100164.59;5050651;28;20028;-79
2024/04/03 09:34:09;;;;;;;2.08;0.70;;;;;;;22.50;27.99;100178.31;5048977;28;20072;-81
2024/04/03 09:36:35;;;;;;;2.25;0.73;;;;;;;22.93;26.04;100180.06;5049306;28;20029;-80
2024/04/03 09:39:00;;;;;;;4.57;0.80;;;;;;;23.22;25.86;100194.25;5048047;28;20028;-80
2024/04/03 09:41:30;;;;;;;2.15;1.00;;;;;;;23.65;24.91;100196.69;5047000;28;20032;-80
2024/04/03 09:44:00;;;;;;;2.13;0.47;;;;;;;23.29;26.66;100187.59;5048318;28;20474;-79
2024/04/03 09:46:30;;;;;;;3.75;1.02;;;;;;;23.42;25.79;100175.94;5048908;28;20036;-81
2024/04/03 09:48:55;;;;;;;2.70;0.50;;;;;;;23.77;24.84;100182.59;5048913;28;20056;-80
2024/04/03 09:51:21;;;;;;;2.17;0.60;;;;;;;23.77;26.33;100165.44;5048665;28;20067;-79
2024/04/03 09:53:47;;;;;;;1.98;0.60;;;;;;;24.00;26.37;100174.47;5048496;28;20461;-80
2024/04/03 09:56:16;;;;;;;0.70;0.60;;;;;;;24.36;24.89;100188.13;5048783;28;20033;-81
2024/04/03 09:58:42;;;;;;;2.70;0.60;;;;;;;24.47;27.31;100175.84;5048846;28;20033;-79
2024/04/03 10:01:08;;;;;;;2.78;0.50;;;;;;;24.38;26.17;100168.72;5048499;28;20025;-80
2024/04/03 10:03:37;;;;;;;2.85;0.68;;;;;;;24.46;25.47;100185.16;5048533;28;20029;-80
2024/04/03 10:06:16;;;;;;;4.93;0.90;;;;;;;24.18;24.43;100164.56;5048756;28;20024;-80
2024/04/03 10:08:42;;;;;;;1.35;0.60;;;;;;;24.16;23.88;100177.69;5028965;28;20037;-80
2024/04/03 10:11:10;;;;;;;2.58;0.55;;;;;;;24.36;23.96;100177.22;5037116;28;20506;-80
2024/04/03 10:13:40;;;;;;;1.27;0.60;;;;;;;24.37;22.62;100178.81;5046388;28;20036;-80
2024/04/03 10:16:12;;;;;;;0.80;0.55;;;;;;;24.74;23.04;100192.41;5048348;28;20037;-79
2024/04/03 10:18:57;;;;;;;2.42;0.55;;;;;;;24.33;21.60;100177.81;5046266;28;20032;-81
2024/04/03 10:21:25;;;;;;;2.58;0.60;;;;;;;24.23;23.50;100178.03;5045118;28;20036;-81
2024/04/03 10:23:51;;;;;;;1.85;0.57;;;;;;;23.38;24.13;100172.19;5047482;28;20417;-80
2024/04/03 10:26:18;;;;;;;2.60;1.30;;;;;;;24.05;23.21;100167.00;5045960;28;20478;-79
2024/04/03 10:28:45;;;;;;;2.63;1.10;;;;;;;24.12;23.66;100133.09;5047372;28;20457;-80
2024/04/03 10:31:16;;;;;;;0.90;0.50;;;;;;;24.70;23.93;100167.69;5048183;28;20080;-79
2024/04/03 10:33:42;;;;;;;2.55;0.50;;;;;;;24.89;21.17;100172.94;5049393;28;20494;-80
2024/04/03 10:36:08;;;;;;;1.77;0.55;;;;;;;24.81;21.81;100149.97;5047637;28;20104;-80
2024/04/03 10:38:36;;;;;;;3.42;0.60;;;;;;;25.02;22.99;100144.75;5047667;28;20032;-80
2024/04/03 10:41:01;;;;;;;1.17;0.43;;;;;;;25.23;20.37;100168.81;5047606;28;20036;-82
2024/04/03 10:43:27;;;;;;;1.17;0.50;;;;;;;24.94;21.03;100174.72;5045826;28;20037;-81
2024/04/03 10:45:53;;;;;;;1.23;0.38;;;;;;;25.02;20.91;100168.53;5047281;28;20573;-80
2024/04/03 10:48:23;;;;;;;1.25;0.50;;;;;;;25.50;20.05;100142.41;5046123;28;20029;-80
2024/04/03 10:50:48;;;;;;;1.13;0.40;;;;;;;25.78;19.69;100135.53;5047767;28;20033;-80
2024/04/03 10:53:14;;;;;;;2.22;1.20;;;;;;;25.82;19.50;100154.84;5048030;28;20111;-80
2024/04/03 10:55:41;;;;;;;0.88;0.57;;;;;;;25.05;20.28;100140.63;5047287;28;20399;-79
2024/04/03 10:58:08;;;;;;;2.72;0.50;;;;;;;25.45;20.20;100146.88;5047781;28;20035;-81
2024/04/03 11:00:38;;;;;;;1.42;0.60;;;;;;;25.84;21.71;100153.38;5047662;28;20029;-81
2024/04/03 11:03:09;;;;;;;1.70;0.60;;;;;;;26.54;20.38;100163.56;5047627;28;20041;-80
2024/04/03 11:05:39;;;;;;;1.17;0.47;;;;;;;26.88;19.76;100140.84;5047476;28;20037;-79
2024/04/03 11:08:05;;;;;;;3.33;0.60;;;;;;;26.68;21.65;100139.59;5047456;28;20029;-80
2024/04/03 11:10:31;;;;;;;3.72;0.57;;;;;;;26.67;20.31;100151.69;5047691;28;20041;-80
2024/04/03 11:13:04;;;;;;;3.08;0.47;;;;;;;26.33;19.76;100133.34;5046570;28;20048;-79
2024/04/03 11:15:29;;;;;;;1.65;0.40;;;;;;;26.69;19.46;100127.53;5047651;28;20032;-81
2024/04/03 11:17:56;;;;;;;4.05;0.50;;;;;;;26.53;21.25;100124.47;5046410;28;20047;-79
2024/04/03 11:20:24;;;;;;;2.63;0.50;;;;;;;26.17;20.29;100122.09;5046909;28;20025;-79
2024/04/03 11:22:49;;;;;;;;;;;;;;;26.45;20.95;100139.75;5049306;28;20124;-80
2024/04/03 11:25:14;;;;;;;2.80;0.60;;;;;;;26.48;19.63;100110.16;5046242;28;20004;-81
2024/04/03 11:27:40;;;;;;;2.28;0.80;;;;;;;26.35;19.27;100114.69;5048765;28;20111;-80